Kingmont, West Virginia
Current Conditions -  °F | °C
As of 11:53 AM on Friday 24 Oct 2014 (Local Time) from KCKB Reporting Station
Broken Clouds Broken Clouds  
Wind Chill: 52°   Ceiling: 25000
Heat Index: 52°   Visibility: 10mi
Dew Point: 41°   Wind: 3mph
Humidity: 66%   Direction: 210°SSW
Pressure: 30.11"   Gusts: NA
Location:  39.45°N, 80.18°W
Report Text: KCKB 241553Z 21003KT 10SM SCT045 BKN250 11/05 A3011 RMK AO2 SLP193 T01110050
Loading
Personal Weather Stations






























Interactive Weather Map
Tropical Storm Tracking
New forecast layout! Learn more

10-Day Weather Forecast

Advertisements
Track Severe Weather on mobile